sensor_id;sensor_type;location;lat;lon;timestamp;P1;durP1;ratioP1;P2;durP2;ratioP2
65289;SDS011;51893;59.754;10.110;2023-07-31T00:02:08;6.10;;;1.20;;
65289;SDS011;51893;59.754;10.110;2023-07-31T00:04:38;5.10;;;1.30;;
65289;SDS011;51893;59.754;10.110;2023-07-31T00:07:06;6.20;;;1.20;;
65289;SDS011;51893;59.754;10.110;2023-07-31T00:09:34;5.00;;;1.20;;
65289;SDS011;51893;59.754;10.110;2023-07-31T00:12:02;4.90;;;1.40;;
65289;SDS011;51893;59.754;10.110;2023-07-31T00:14:31;4.20;;;1.10;;
65289;SDS011;51893;59.754;10.110;2023-07-31T00:16:59;6.90;;;1.60;;
65289;SDS011;51893;59.754;10.110;2023-07-31T00:19:27;6.10;;;1.30;;
65289;SDS011;51893;59.754;10.110;2023-07-31T00:21:55;7.30;;;1.20;;
65289;SDS011;51893;59.754;10.110;2023-07-31T00:24:23;6.00;;;1.70;;
65289;SDS011;51893;59.754;10.110;2023-07-31T00:26:51;4.70;;;1.20;;
65289;SDS011;51893;59.754;10.110;2023-07-31T00:29:19;5.90;;;1.50;;
65289;SDS011;51893;59.754;10.110;2023-07-31T00:31:47;4.20;;;1.30;;
65289;SDS011;51893;59.754;10.110;2023-07-31T00:34:15;6.10;;;1.40;;
65289;SDS011;51893;59.754;10.110;2023-07-31T00:36:43;5.30;;;1.20;;
65289;SDS011;51893;59.754;10.110;2023-07-31T00:39:11;4.70;;;1.30;;
65289;SDS011;51893;59.754;10.110;2023-07-31T00:41:39;3.60;;;1.30;;
65289;SDS011;51893;59.754;10.110;2023-07-31T00:44:06;9.40;;;1.10;;
65289;SDS011;51893;59.754;10.110;2023-07-31T00:46:35;7.50;;;1.60;;
65289;SDS011;51893;59.754;10.110;2023-07-31T00:49:04;12.70;;;1.40;;
65289;SDS011;51893;59.754;10.110;2023-07-31T00:51:33;3.60;;;1.40;;
65289;SDS011;51893;59.754;10.110;2023-07-31T00:54:01;10.00;;;2.00;;
65289;SDS011;51893;59.754;10.110;2023-07-31T00:56:30;4.70;;;1.40;;
65289;SDS011;51893;59.754;10.110;2023-07-31T00:58:58;6.10;;;1.30;;
65289;SDS011;51893;59.754;10.110;2023-07-31T01:01:27;4.70;;;1.40;;
65289;SDS011;51893;59.754;10.110;2023-07-31T01:03:55;8.10;;;1.30;;
65289;SDS011;51893;59.754;10.110;2023-07-31T01:06:36;6.00;;;1.30;;
65289;SDS011;51893;59.754;10.110;2023-07-31T01:09:20;7.10;;;1.40;;
65289;SDS011;51893;59.754;10.110;2023-07-31T01:12:01;7.00;;;1.30;;
65289;SDS011;51893;59.754;10.110;2023-07-31T01:14:31;8.10;;;1.40;;
65289;SDS011;51893;59.754;10.110;2023-07-31T01:16:59;10.10;;;1.30;;
65289;SDS011;51893;59.754;10.110;2023-07-31T01:19:27;8.00;;;1.40;;
65289;SDS011;51893;59.754;10.110;2023-07-31T01:28:03;8.60;;;1.20;;
65289;SDS011;51893;59.754;10.110;2023-07-31T01:30:35;4.60;;;1.30;;
65289;SDS011;51893;59.754;10.110;2023-07-31T01:33:08;6.40;;;1.40;;
65289;SDS011;51893;59.754;10.110;2023-07-31T01:35:37;3.60;;;1.20;;
65289;SDS011;51893;59.754;10.110;2023-07-31T01:38:06;4.30;;;1.30;;
65289;SDS011;51893;59.754;10.110;2023-07-31T01:40:34;9.00;;;1.60;;
65289;SDS011;51893;59.754;10.110;2023-07-31T01:43:02;2.90;;;1.10;;
65289;SDS011;51893;59.754;10.110;2023-07-31T01:45:31;5.60;;;1.20;;
65289;SDS011;51893;59.754;10.110;2023-07-31T01:47:59;6.90;;;1.80;;
65289;SDS011;51893;59.754;10.110;2023-07-31T01:50:27;3.30;;;1.10;;
65289;SDS011;51893;59.754;10.110;2023-07-31T01:52:55;4.80;;;1.40;;
65289;SDS011;51893;59.754;10.110;2023-07-31T01:55:23;9.10;;;1.30;;
65289;SDS011;51893;59.754;10.110;2023-07-31T01:57:51;9.80;;;1.30;;
65289;SDS011;51893;59.754;10.110;2023-07-31T02:00:20;2.80;;;1.20;;
65289;SDS011;51893;59.754;10.110;2023-07-31T02:02:50;4.30;;;1.10;;
65289;SDS011;51893;59.754;10.110;2023-07-31T02:05:19;5.70;;;1.40;;
65289;SDS011;51893;59.754;10.110;2023-07-31T02:07:47;9.50;;;1.50;;
65289;SDS011;51893;59.754;10.110;2023-07-31T02:10:15;4.50;;;1.30;;
65289;SDS011;51893;59.754;10.110;2023-07-31T02:12:43;8.90;;;1.50;;
65289;SDS011;51893;59.754;10.110;2023-07-31T02:15:11;6.00;;;1.20;;
65289;SDS011;51893;59.754;10.110;2023-07-31T02:17:39;5.90;;;1.20;;
65289;SDS011;51893;59.754;10.110;2023-07-31T02:20:08;4.50;;;1.20;;
65289;SDS011;51893;59.754;10.110;2023-07-31T02:22:36;5.40;;;1.50;;
65289;SDS011;51893;59.754;10.110;2023-07-31T02:25:05;5.00;;;1.40;;
65289;SDS011;51893;59.754;10.110;2023-07-31T02:27:33;6.50;;;1.30;;
65289;SDS011;51893;59.754;10.110;2023-07-31T02:30:01;6.00;;;1.60;;
65289;SDS011;51893;59.754;10.110;2023-07-31T02:32:29;6.50;;;1.40;;
65289;SDS011;51893;59.754;10.110;2023-07-31T02:34:57;10.80;;;2.00;;
65289;SDS011;51893;59.754;10.110;2023-07-31T02:37:26;6.00;;;1.50;;
65289;SDS011;51893;59.754;10.110;2023-07-31T02:39:56;8.50;;;1.60;;
65289;SDS011;51893;59.754;10.110;2023-07-31T02:42:24;6.00;;;1.40;;
65289;SDS011;51893;59.754;10.110;2023-07-31T02:44:52;4.90;;;1.60;;
65289;SDS011;51893;59.754;10.110;2023-07-31T02:47:23;7.20;;;1.60;;
65289;SDS011;51893;59.754;10.110;2023-07-31T02:49:51;11.00;;;1.60;;
65289;SDS011;51893;59.754;10.110;2023-07-31T02:52:19;4.90;;;1.50;;
65289;SDS011;51893;59.754;10.110;2023-07-31T02:54:48;6.70;;;1.80;;
65289;SDS011;51893;59.754;10.110;2023-07-31T02:57:16;5.20;;;1.40;;
65289;SDS011;51893;59.754;10.110;2023-07-31T02:59:44;8.30;;;1.70;;
65289;SDS011;51893;59.754;10.110;2023-07-31T03:02:12;7.60;;;1.40;;
65289;SDS011;51893;59.754;10.110;2023-07-31T03:04:42;5.80;;;1.70;;
65289;SDS011;51893;59.754;10.110;2023-07-31T03:07:10;5.30;;;1.20;;
65289;SDS011;51893;59.754;10.110;2023-07-31T03:09:38;4.90;;;1.50;;
65289;SDS011;51893;59.754;10.110;2023-07-31T03:12:07;7.40;;;1.50;;
65289;SDS011;51893;59.754;10.110;2023-07-31T03:14:35;8.60;;;1.50;;
65289;SDS011;51893;59.754;10.110;2023-07-31T03:17:04;8.50;;;1.70;;
65289;SDS011;51893;59.754;10.110;2023-07-31T03:19:32;6.80;;;1.70;;
65289;SDS011;51893;59.754;10.110;2023-07-31T03:22:00;6.10;;;1.90;;
65289;SDS011;51893;59.754;10.110;2023-07-31T03:24:29;6.70;;;1.50;;
65289;SDS011;51893;59.754;10.110;2023-07-31T03:26:57;6.10;;;1.60;;
65289;SDS011;51893;59.754;10.110;2023-07-31T03:29:26;4.70;;;1.70;;
65289;SDS011;51893;59.754;10.110;2023-07-31T03:31:55;4.20;;;1.60;;
65289;SDS011;51893;59.754;10.110;2023-07-31T03:34:23;6.40;;;1.30;;
65289;SDS011;51893;59.754;10.110;2023-07-31T03:36:51;4.60;;;1.40;;
65289;SDS011;51893;59.754;10.110;2023-07-31T03:39:20;6.00;;;1.50;;
65289;SDS011;51893;59.754;10.110;2023-07-31T03:41:50;5.70;;;1.60;;
65289;SDS011;51893;59.754;10.110;2023-07-31T03:44:18;8.60;;;1.30;;
65289;SDS011;51893;59.754;10.110;2023-07-31T03:46:46;8.60;;;1.60;;
65289;SDS011;51893;59.754;10.110;2023-07-31T03:49:15;8.00;;;1.70;;
65289;SDS011;51893;59.754;10.110;2023-07-31T03:51:43;4.80;;;1.80;;
65289;SDS011;51893;59.754;10.110;2023-07-31T03:54:11;5.80;;;1.80;;
65289;SDS011;51893;59.754;10.110;2023-07-31T03:56:40;4.60;;;1.50;;
65289;SDS011;51893;59.754;10.110;2023-07-31T03:59:10;5.40;;;1.30;;
65289;SDS011;51893;59.754;10.110;2023-07-31T04:01:38;10.40;;;1.30;;
65289;SDS011;51893;59.754;10.110;2023-07-31T04:04:06;3.10;;;0.80;;
65289;SDS011;51893;59.754;10.110;2023-07-31T04:06:34;4.00;;;1.30;;
65289;SDS011;51893;59.754;10.110;2023-07-31T04:09:02;4.80;;;1.50;;
65289;SDS011;51893;59.754;10.110;2023-07-31T04:11:32;7.00;;;1.40;;
65289;SDS011;51893;59.754;10.110;2023-07-31T04:14:00;5.80;;;1.70;;
65289;SDS011;51893;59.754;10.110;2023-07-31T04:16:28;7.60;;;1.50;;
65289;SDS011;51893;59.754;10.110;2023-07-31T04:18:56;4.10;;;1.50;;
65289;SDS011;51893;59.754;10.110;2023-07-31T04:21:26;8.00;;;1.50;;
65289;SDS011;51893;59.754;10.110;2023-07-31T04:23:54;6.40;;;1.80;;
65289;SDS011;51893;59.754;10.110;2023-07-31T04:26:23;5.50;;;1.10;;
65289;SDS011;51893;59.754;10.110;2023-07-31T04:28:51;5.00;;;1.40;;
65289;SDS011;51893;59.754;10.110;2023-07-31T04:31:19;3.90;;;1.50;;
65289;SDS011;51893;59.754;10.110;2023-07-31T04:33:49;8.10;;;2.00;;
65289;SDS011;51893;59.754;10.110;2023-07-31T04:36:17;5.00;;;1.30;;
65289;SDS011;51893;59.754;10.110;2023-07-31T04:38:45;8.80;;;1.80;;
65289;SDS011;51893;59.754;10.110;2023-07-31T04:41:13;6.80;;;1.50;;
65289;SDS011;51893;59.754;10.110;2023-07-31T04:43:41;5.70;;;1.40;;
65289;SDS011;51893;59.754;10.110;2023-07-31T04:46:09;5.50;;;1.40;;
65289;SDS011;51893;59.754;10.110;2023-07-31T04:48:38;4.20;;;1.40;;
65289;SDS011;51893;59.754;10.110;2023-07-31T04:51:06;4.90;;;1.60;;
65289;SDS011;51893;59.754;10.110;2023-07-31T04:53:35;8.60;;;1.70;;
65289;SDS011;51893;59.754;10.110;2023-07-31T04:56:03;10.10;;;1.40;;
65289;SDS011;51893;59.754;10.110;2023-07-31T04:58:31;7.50;;;1.40;;
65289;SDS011;51893;59.754;10.110;2023-07-31T05:00:59;5.80;;;1.70;;
65289;SDS011;51893;59.754;10.110;2023-07-31T05:03:28;5.80;;;1.70;;
65289;SDS011;51893;59.754;10.110;2023-07-31T05:05:56;9.30;;;1.60;;
65289;SDS011;51893;59.754;10.110;2023-07-31T05:08:24;6.10;;;1.50;;
65289;SDS011;51893;59.754;10.110;2023-07-31T05:10:52;5.50;;;1.40;;
65289;SDS011;51893;59.754;10.110;2023-07-31T05:13:20;5.10;;;1.30;;
65289;SDS011;51893;59.754;10.110;2023-07-31T05:15:49;7.90;;;1.40;;
65289;SDS011;51893;59.754;10.110;2023-07-31T05:18:17;3.00;;;1.40;;
65289;SDS011;51893;59.754;10.110;2023-07-31T05:20:45;3.80;;;1.10;;
65289;SDS011;51893;59.754;10.110;2023-07-31T05:23:13;3.60;;;1.30;;
65289;SDS011;51893;59.754;10.110;2023-07-31T05:25:41;13.90;;;2.40;;
65289;SDS011;51893;59.754;10.110;2023-07-31T05:28:09;8.10;;;1.70;;
65289;SDS011;51893;59.754;10.110;2023-07-31T05:30:37;6.00;;;1.40;;
65289;SDS011;51893;59.754;10.110;2023-07-31T05:33:05;7.90;;;1.70;;
65289;SDS011;51893;59.754;10.110;2023-07-31T05:35:34;9.70;;;1.40;;
65289;SDS011;51893;59.754;10.110;2023-07-31T05:38:03;8.00;;;1.70;;
65289;SDS011;51893;59.754;10.110;2023-07-31T05:40:33;4.60;;;1.50;;
65289;SDS011;51893;59.754;10.110;2023-07-31T05:43:01;4.90;;;1.40;;
65289;SDS011;51893;59.754;10.110;2023-07-31T05:45:29;6.20;;;1.30;;
65289;SDS011;51893;59.754;10.110;2023-07-31T05:47:57;6.30;;;1.50;;
65289;SDS011;51893;59.754;10.110;2023-07-31T05:50:26;5.30;;;1.60;;
65289;SDS011;51893;59.754;10.110;2023-07-31T05:52:54;9.20;;;2.00;;
65289;SDS011;51893;59.754;10.110;2023-07-31T05:55:22;4.40;;;1.40;;
65289;SDS011;51893;59.754;10.110;2023-07-31T05:57:51;4.60;;;1.30;;
65289;SDS011;51893;59.754;10.110;2023-07-31T06:00:19;5.80;;;1.50;;
65289;SDS011;51893;59.754;10.110;2023-07-31T06:02:48;5.10;;;1.30;;
65289;SDS011;51893;59.754;10.110;2023-07-31T06:05:18;5.80;;;1.20;;
65289;SDS011;51893;59.754;10.110;2023-07-31T06:07:46;7.50;;;1.60;;
65289;SDS011;51893;59.754;10.110;2023-07-31T06:10:14;6.80;;;1.40;;
65289;SDS011;51893;59.754;10.110;2023-07-31T06:12:42;4.20;;;1.20;;
65289;SDS011;51893;59.754;10.110;2023-07-31T06:15:10;4.70;;;1.10;;
65289;SDS011;51893;59.754;10.110;2023-07-31T06:17:38;6.00;;;1.50;;
65289;SDS011;51893;59.754;10.110;2023-07-31T06:20:07;5.40;;;1.80;;
65289;SDS011;51893;59.754;10.110;2023-07-31T06:22:35;6.40;;;1.50;;
65289;SDS011;51893;59.754;10.110;2023-07-31T06:25:04;5.70;;;1.60;;
65289;SDS011;51893;59.754;10.110;2023-07-31T06:27:33;5.00;;;1.70;;
65289;SDS011;51893;59.754;10.110;2023-07-31T06:30:01;6.40;;;1.50;;
65289;SDS011;51893;59.754;10.110;2023-07-31T06:32:29;4.10;;;1.30;;
65289;SDS011;51893;59.754;10.110;2023-07-31T06:34:58;7.40;;;1.90;;
65289;SDS011;51893;59.754;10.110;2023-07-31T06:37:26;6.50;;;1.40;;
65289;SDS011;51893;59.754;10.110;2023-07-31T06:39:54;7.90;;;1.50;;
65289;SDS011;51893;59.754;10.110;2023-07-31T06:42:22;7.10;;;1.70;;
65289;SDS011;51893;59.754;10.110;2023-07-31T06:44:50;4.20;;;1.20;;
65289;SDS011;51893;59.754;10.110;2023-07-31T06:47:18;10.40;;;1.60;;
65289;SDS011;51893;59.754;10.110;2023-07-31T06:49:49;8.20;;;1.40;;
65289;SDS011;51893;59.754;10.110;2023-07-31T06:52:17;5.80;;;1.80;;
65289;SDS011;51893;59.754;10.110;2023-07-31T06:55:00;4.40;;;1.40;;
65289;SDS011;51893;59.754;10.110;2023-07-31T06:57:30;5.10;;;1.70;;
65289;SDS011;51893;59.754;10.110;2023-07-31T06:59:58;4.60;;;1.20;;
65289;SDS011;51893;59.754;10.110;2023-07-31T07:02:26;5.30;;;1.40;;
65289;SDS011;51893;59.754;10.110;2023-07-31T07:04:54;6.40;;;1.70;;
65289;SDS011;51893;59.754;10.110;2023-07-31T07:07:23;9.10;;;1.50;;
65289;SDS011;51893;59.754;10.110;2023-07-31T07:09:51;7.10;;;1.70;;
65289;SDS011;51893;59.754;10.110;2023-07-31T07:12:19;8.20;;;1.30;;
65289;SDS011;51893;59.754;10.110;2023-07-31T07:14:47;4.60;;;0.90;;
65289;SDS011;51893;59.754;10.110;2023-07-31T07:17:15;4.30;;;1.50;;
65289;SDS011;51893;59.754;10.110;2023-07-31T07:19:43;4.50;;;1.50;;
65289;SDS011;51893;59.754;10.110;2023-07-31T07:22:11;5.60;;;1.50;;
65289;SDS011;51893;59.754;10.110;2023-07-31T07:24:39;3.50;;;1.10;;
65289;SDS011;51893;59.754;10.110;2023-07-31T07:27:07;8.10;;;1.20;;
65289;SDS011;51893;59.754;10.110;2023-07-31T07:29:35;8.40;;;1.40;;
65289;SDS011;51893;59.754;10.110;2023-07-31T07:32:04;6.40;;;1.30;;
65289;SDS011;51893;59.754;10.110;2023-07-31T07:34:33;5.90;;;1.40;;
65289;SDS011;51893;59.754;10.110;2023-07-31T07:37:01;4.30;;;1.20;;
65289;SDS011;51893;59.754;10.110;2023-07-31T07:39:29;3.90;;;1.40;;
65289;SDS011;51893;59.754;10.110;2023-07-31T07:41:57;9.00;;;1.50;;
65289;SDS011;51893;59.754;10.110;2023-07-31T07:44:25;7.90;;;1.40;;
65289;SDS011;51893;59.754;10.110;2023-07-31T07:46:54;5.30;;;1.70;;
65289;SDS011;51893;59.754;10.110;2023-07-31T07:49:23;7.10;;;1.40;;
65289;SDS011;51893;59.754;10.110;2023-07-31T07:51:51;6.00;;;1.70;;
65289;SDS011;51893;59.754;10.110;2023-07-31T07:54:19;6.50;;;1.40;;
65289;SDS011;51893;59.754;10.110;2023-07-31T07:56:51;4.60;;;1.20;;
65289;SDS011;51893;59.754;10.110;2023-07-31T07:59:20;4.40;;;1.60;;
65289;SDS011;51893;59.754;10.110;2023-07-31T08:01:48;6.80;;;1.40;;
65289;SDS011;51893;59.754;10.110;2023-07-31T08:04:16;6.30;;;1.20;;
65289;SDS011;51893;59.754;10.110;2023-07-31T08:06:44;4.40;;;1.10;;
65289;SDS011;51893;59.754;10.110;2023-07-31T08:09:12;2.30;;;0.80;;
65289;SDS011;51893;59.754;10.110;2023-07-31T08:11:43;3.50;;;1.10;;
65289;SDS011;51893;59.754;10.110;2023-07-31T08:14:11;3.90;;;0.90;;
65289;SDS011;51893;59.754;10.110;2023-07-31T08:16:39;2.50;;;1.20;;
65289;SDS011;51893;59.754;10.110;2023-07-31T08:19:07;4.40;;;1.20;;
65289;SDS011;51893;59.754;10.110;2023-07-31T08:21:36;2.70;;;1.00;;
65289;SDS011;51893;59.754;10.110;2023-07-31T08:24:04;2.80;;;1.10;;
65289;SDS011;51893;59.754;10.110;2023-07-31T08:26:32;2.30;;;0.80;;
65289;SDS011;51893;59.754;10.110;2023-07-31T08:29:00;2.90;;;0.80;;
65289;SDS011;51893;59.754;10.110;2023-07-31T08:31:28;5.20;;;0.80;;
65289;SDS011;51893;59.754;10.110;2023-07-31T08:33:57;3.20;;;1.00;;
65289;SDS011;51893;59.754;10.110;2023-07-31T08:36:25;2.20;;;1.00;;
65289;SDS011;51893;59.754;10.110;2023-07-31T08:38:57;3.60;;;1.00;;
65289;SDS011;51893;59.754;10.110;2023-07-31T08:41:25;3.50;;;0.80;;
65289;SDS011;51893;59.754;10.110;2023-07-31T08:43:54;3.70;;;1.10;;
65289;SDS011;51893;59.754;10.110;2023-07-31T08:46:25;3.80;;;1.00;;
65289;SDS011;51893;59.754;10.110;2023-07-31T08:48:54;2.60;;;0.80;;
65289;SDS011;51893;59.754;10.110;2023-07-31T08:51:26;4.80;;;1.00;;
65289;SDS011;51893;59.754;10.110;2023-07-31T08:53:56;3.60;;;1.00;;
65289;SDS011;51893;59.754;10.110;2023-07-31T08:56:25;4.50;;;1.40;;
65289;SDS011;51893;59.754;10.110;2023-07-31T08:58:54;1.80;;;0.80;;
65289;SDS011;51893;59.754;10.110;2023-07-31T09:01:23;2.30;;;0.90;;
65289;SDS011;51893;59.754;10.110;2023-07-31T09:03:53;2.90;;;0.90;;
65289;SDS011;51893;59.754;10.110;2023-07-31T09:06:23;2.20;;;0.80;;
65289;SDS011;51893;59.754;10.110;2023-07-31T09:08:54;3.40;;;1.00;;
65289;SDS011;51893;59.754;10.110;2023-07-31T09:11:25;4.30;;;1.00;;
65289;SDS011;51893;59.754;10.110;2023-07-31T09:13:57;5.10;;;0.80;;
65289;SDS011;51893;59.754;10.110;2023-07-31T09:16:29;5.50;;;1.10;;
65289;SDS011;51893;59.754;10.110;2023-07-31T09:19:00;4.00;;;1.10;;
65289;SDS011;51893;59.754;10.110;2023-07-31T09:21:33;3.50;;;1.00;;
65289;SDS011;51893;59.754;10.110;2023-07-31T09:24:01;4.60;;;0.90;;
65289;SDS011;51893;59.754;10.110;2023-07-31T09:26:34;2.70;;;1.00;;
65289;SDS011;51893;59.754;10.110;2023-07-31T09:29:05;2.80;;;0.90;;
65289;SDS011;51893;59.754;10.110;2023-07-31T09:31:47;7.30;;;1.20;;
65289;SDS011;51893;59.754;10.110;2023-07-31T09:34:16;3.10;;;1.00;;
65289;SDS011;51893;59.754;10.110;2023-07-31T09:36:48;6.40;;;1.00;;
65289;SDS011;51893;59.754;10.110;2023-07-31T09:39:18;3.80;;;0.90;;
65289;SDS011;51893;59.754;10.110;2023-07-31T09:41:53;3.70;;;1.20;;
65289;SDS011;51893;59.754;10.110;2023-07-31T09:44:37;6.00;;;1.30;;
65289;SDS011;51893;59.754;10.110;2023-07-31T09:47:23;6.40;;;1.50;;
65289;SDS011;51893;59.754;10.110;2023-07-31T09:49:52;6.30;;;1.30;;
65289;SDS011;51893;59.754;10.110;2023-07-31T09:52:21;4.00;;;1.20;;
65289;SDS011;51893;59.754;10.110;2023-07-31T09:54:50;1.90;;;0.80;;
65289;SDS011;51893;59.754;10.110;2023-07-31T09:57:22;9.00;;;1.50;;
65289;SDS011;51893;59.754;10.110;2023-07-31T09:59:52;2.30;;;0.80;;
65289;SDS011;51893;59.754;10.110;2023-07-31T10:02:22;4.60;;;1.10;;
65289;SDS011;51893;59.754;10.110;2023-07-31T10:04:51;3.10;;;1.20;;
65289;SDS011;51893;59.754;10.110;2023-07-31T10:07:25;5.00;;;1.10;;
65289;SDS011;51893;59.754;10.110;2023-07-31T10:09:57;5.80;;;1.10;;
65289;SDS011;51893;59.754;10.110;2023-07-31T10:12:32;2.30;;;0.80;;
65289;SDS011;51893;59.754;10.110;2023-07-31T10:15:03;2.60;;;0.90;;
65289;SDS011;51893;59.754;10.110;2023-07-31T10:17:32;4.00;;;1.00;;
65289;SDS011;51893;59.754;10.110;2023-07-31T10:20:03;2.70;;;0.90;;
65289;SDS011;51893;59.754;10.110;2023-07-31T10:22:35;2.00;;;0.90;;
65289;SDS011;51893;59.754;10.110;2023-07-31T10:25:04;3.90;;;1.30;;
65289;SDS011;51893;59.754;10.110;2023-07-31T10:27:36;2.70;;;1.10;;
65289;SDS011;51893;59.754;10.110;2023-07-31T10:30:15;3.60;;;0.90;;
65289;SDS011;51893;59.754;10.110;2023-07-31T10:32:48;0.70;;;0.70;;
65289;SDS011;51893;59.754;10.110;2023-07-31T10:35:20;4.00;;;0.90;;
65289;SDS011;51893;59.754;10.110;2023-07-31T10:37:51;1.60;;;0.70;;
65289;SDS011;51893;59.754;10.110;2023-07-31T10:40:25;2.10;;;1.00;;
65289;SDS011;51893;59.754;10.110;2023-07-31T10:42:56;5.50;;;1.10;;
65289;SDS011;51893;59.754;10.110;2023-07-31T10:45:37;1.80;;;0.80;;
65289;SDS011;51893;59.754;10.110;2023-07-31T10:48:15;3.00;;;1.30;;
65289;SDS011;51893;59.754;10.110;2023-07-31T10:50:52;1.90;;;0.90;;
65289;SDS011;51893;59.754;10.110;2023-07-31T10:53:26;1.30;;;1.00;;
65289;SDS011;51893;59.754;10.110;2023-07-31T10:56:00;3.40;;;1.10;;
65289;SDS011;51893;59.754;10.110;2023-07-31T10:58:30;4.90;;;0.80;;
65289;SDS011;51893;59.754;10.110;2023-07-31T11:01:02;3.60;;;0.90;;
65289;SDS011;51893;59.754;10.110;2023-07-31T11:06:16;4.50;;;1.10;;
65289;SDS011;51893;59.754;10.110;2023-07-31T11:08:47;2.70;;;1.00;;
65289;SDS011;51893;59.754;10.110;2023-07-31T11:11:19;1.60;;;0.90;;
65289;SDS011;51893;59.754;10.110;2023-07-31T11:13:53;4.60;;;1.00;;
65289;SDS011;51893;59.754;10.110;2023-07-31T11:16:26;3.30;;;1.20;;
65289;SDS011;51893;59.754;10.110;2023-07-31T11:18:55;2.80;;;1.00;;
65289;SDS011;51893;59.754;10.110;2023-07-31T11:21:28;3.50;;;1.10;;
65289;SDS011;51893;59.754;10.110;2023-07-31T11:23:57;4.50;;;1.00;;
65289;SDS011;51893;59.754;10.110;2023-07-31T11:26:28;3.00;;;1.00;;
65289;SDS011;51893;59.754;10.110;2023-07-31T11:28:58;3.70;;;1.10;;
65289;SDS011;51893;59.754;10.110;2023-07-31T11:31:26;3.70;;;1.10;;
65289;SDS011;51893;59.754;10.110;2023-07-31T11:34:06;3.40;;;1.20;;
65289;SDS011;51893;59.754;10.110;2023-07-31T11:36:35;4.60;;;1.20;;
65289;SDS011;51893;59.754;10.110;2023-07-31T11:39:09;5.60;;;1.10;;
65289;SDS011;51893;59.754;10.110;2023-07-31T11:41:41;6.10;;;1.40;;
65289;SDS011;51893;59.754;10.110;2023-07-31T11:44:11;4.30;;;1.20;;
65289;SDS011;51893;59.754;10.110;2023-07-31T11:46:56;2.80;;;0.90;;
65289;SDS011;51893;59.754;10.110;2023-07-31T11:49:25;1.70;;;0.80;;
65289;SDS011;51893;59.754;10.110;2023-07-31T11:51:53;4.10;;;1.20;;
65289;SDS011;51893;59.754;10.110;2023-07-31T11:54:22;2.60;;;0.90;;
65289;SDS011;51893;59.754;10.110;2023-07-31T11:56:52;1.60;;;1.00;;
65289;SDS011;51893;59.754;10.110;2023-07-31T11:59:20;4.20;;;1.10;;
65289;SDS011;51893;59.754;10.110;2023-07-31T12:01:48;3.60;;;1.10;;
65289;SDS011;51893;59.754;10.110;2023-07-31T12:04:21;2.90;;;1.00;;
65289;SDS011;51893;59.754;10.110;2023-07-31T12:06:52;6.60;;;1.20;;
65289;SDS011;51893;59.754;10.110;2023-07-31T12:09:25;1.90;;;1.00;;
65289;SDS011;51893;59.754;10.110;2023-07-31T12:11:54;2.90;;;1.10;;
65289;SDS011;51893;59.754;10.110;2023-07-31T12:14:27;4.20;;;1.20;;
65289;SDS011;51893;59.754;10.110;2023-07-31T12:17:09;4.60;;;1.20;;
65289;SDS011;51893;59.754;10.110;2023-07-31T12:19:36;4.20;;;1.10;;
65289;SDS011;51893;59.754;10.110;2023-07-31T12:22:15;2.60;;;1.00;;
65289;SDS011;51893;59.754;10.110;2023-07-31T12:24:44;3.50;;;1.00;;
65289;SDS011;51893;59.754;10.110;2023-07-31T12:27:14;3.00;;;0.90;;
65289;SDS011;51893;59.754;10.110;2023-07-31T12:29:42;3.80;;;1.20;;
65289;SDS011;51893;59.754;10.110;2023-07-31T12:32:23;3.60;;;1.10;;
65289;SDS011;51893;59.754;10.110;2023-07-31T12:34:53;2.90;;;1.20;;
65289;SDS011;51893;59.754;10.110;2023-07-31T12:37:21;4.10;;;1.00;;
65289;SDS011;51893;59.754;10.110;2023-07-31T12:39:49;3.10;;;0.80;;
65289;SDS011;51893;59.754;10.110;2023-07-31T12:42:17;2.60;;;1.00;;
65289;SDS011;51893;59.754;10.110;2023-07-31T12:44:46;2.50;;;0.80;;
65289;SDS011;51893;59.754;10.110;2023-07-31T12:47:14;2.40;;;0.90;;
65289;SDS011;51893;59.754;10.110;2023-07-31T12:49:43;2.50;;;1.10;;
65289;SDS011;51893;59.754;10.110;2023-07-31T12:52:10;2.40;;;0.90;;
65289;SDS011;51893;59.754;10.110;2023-07-31T12:54:38;2.40;;;0.80;;
65289;SDS011;51893;59.754;10.110;2023-07-31T12:57:07;2.00;;;0.60;;
65289;SDS011;51893;59.754;10.110;2023-07-31T12:59:35;1.50;;;0.70;;
65289;SDS011;51893;59.754;10.110;2023-07-31T13:02:03;3.60;;;0.80;;
65289;SDS011;51893;59.754;10.110;2023-07-31T13:04:31;1.20;;;0.70;;
65289;SDS011;51893;59.754;10.110;2023-07-31T13:06:59;2.80;;;0.90;;
65289;SDS011;51893;59.754;10.110;2023-07-31T13:09:27;1.80;;;1.20;;
65289;SDS011;51893;59.754;10.110;2023-07-31T13:11:55;1.70;;;0.70;;
65289;SDS011;51893;59.754;10.110;2023-07-31T13:14:23;1.20;;;0.80;;
65289;SDS011;51893;59.754;10.110;2023-07-31T13:16:52;3.20;;;0.90;;
65289;SDS011;51893;59.754;10.110;2023-07-31T13:19:20;1.80;;;0.70;;
65289;SDS011;51893;59.754;10.110;2023-07-31T13:21:48;1.10;;;0.70;;
65289;SDS011;51893;59.754;10.110;2023-07-31T13:24:16;2.50;;;0.70;;
65289;SDS011;51893;59.754;10.110;2023-07-31T13:26:44;1.20;;;0.70;;
65289;SDS011;51893;59.754;10.110;2023-07-31T13:29:13;2.20;;;0.70;;
65289;SDS011;51893;59.754;10.110;2023-07-31T13:31:42;1.30;;;0.70;;
65289;SDS011;51893;59.754;10.110;2023-07-31T13:34:09;1.60;;;0.90;;
65289;SDS011;51893;59.754;10.110;2023-07-31T13:36:37;1.60;;;0.80;;
65289;SDS011;51893;59.754;10.110;2023-07-31T13:39:06;1.70;;;0.70;;
65289;SDS011;51893;59.754;10.110;2023-07-31T13:41:35;1.40;;;0.80;;
65289;SDS011;51893;59.754;10.110;2023-07-31T13:44:03;1.30;;;0.70;;
65289;SDS011;51893;59.754;10.110;2023-07-31T13:46:32;1.50;;;0.70;;
65289;SDS011;51893;59.754;10.110;2023-07-31T13:49:00;0.50;;;0.50;;
65289;SDS011;51893;59.754;10.110;2023-07-31T13:51:29;1.10;;;0.60;;
65289;SDS011;51893;59.754;10.110;2023-07-31T13:53:57;1.00;;;0.70;;
65289;SDS011;51893;59.754;10.110;2023-07-31T13:56:25;1.90;;;0.60;;
65289;SDS011;51893;59.754;10.110;2023-07-31T13:58:53;1.50;;;0.60;;
65289;SDS011;51893;59.754;10.110;2023-07-31T14:01:21;2.80;;;0.70;;
65289;SDS011;51893;59.754;10.110;2023-07-31T14:03:49;1.80;;;0.70;;
65289;SDS011;51893;59.754;10.110;2023-07-31T14:06:18;0.80;;;0.50;;
65289;SDS011;51893;59.754;10.110;2023-07-31T14:08:46;2.70;;;0.70;;
65289;SDS011;51893;59.754;10.110;2023-07-31T14:11:14;1.60;;;0.70;;
65289;SDS011;51893;59.754;10.110;2023-07-31T14:13:42;1.50;;;0.60;;
65289;SDS011;51893;59.754;10.110;2023-07-31T14:16:10;0.60;;;0.60;;
65289;SDS011;51893;59.754;10.110;2023-07-31T14:18:38;1.30;;;0.60;;
65289;SDS011;51893;59.754;10.110;2023-07-31T14:21:09;1.80;;;0.60;;
65289;SDS011;51893;59.754;10.110;2023-07-31T14:23:37;1.80;;;0.70;;
65289;SDS011;51893;59.754;10.110;2023-07-31T14:26:05;1.50;;;0.70;;
65289;SDS011;51893;59.754;10.110;2023-07-31T14:28:33;1.10;;;0.60;;
65289;SDS011;51893;59.754;10.110;2023-07-31T14:31:02;0.60;;;0.50;;
65289;SDS011;51893;59.754;10.110;2023-07-31T14:33:31;1.50;;;0.70;;
65289;SDS011;51893;59.754;10.110;2023-07-31T14:36:00;0.80;;;0.50;;
